sensor_id;sensor_type;location;lat;lon;timestamp;pressure;altitude;pressure_sealevel;temperature;humidity
60307;BME280;46155;52.364;6.580;2023-04-21T03:01:27;101220.84;;;9.18;100.00
60307;BME280;46155;52.364;6.580;2023-04-21T03:03:53;101220.94;;;9.19;100.00
60307;BME280;46155;52.364;6.580;2023-04-21T03:06:18;101224.00;;;9.25;100.00
60307;BME280;46155;52.364;6.580;2023-04-21T03:08:43;101218.53;;;9.22;100.00
60307;BME280;46155;52.364;6.580;2023-04-21T03:11:08;101228.56;;;9.28;100.00
60307;BME280;46155;52.364;6.580;2023-04-21T03:13:34;101236.75;;;9.33;100.00
60307;BME280;46155;52.364;6.580;2023-04-21T03:15:59;101236.53;;;9.29;100.00
60307;BME280;46155;52.364;6.580;2023-04-21T03:18:24;101233.69;;;9.26;100.00
60307;BME280;46155;52.364;6.580;2023-04-21T03:20:50;101229.44;;;9.28;100.00
60307;BME280;46155;52.364;6.580;2023-04-21T03:23:15;101230.72;;;9.34;100.00
60307;BME280;46155;52.364;6.580;2023-04-21T03:25:41;101227.44;;;9.24;100.00
60307;BME280;46155;52.364;6.580;2023-04-21T03:28:07;101238.34;;;9.30;100.00
60307;BME280;46155;52.364;6.580;2023-04-21T03:30:32;101231.50;;;9.33;100.00
60307;BME280;46155;52.364;6.580;2023-04-21T03:32:57;101227.88;;;9.30;100.00
60307;BME280;46155;52.364;6.580;2023-04-21T03:35:23;101232.91;;;9.27;100.00
60307;BME280;46155;52.364;6.580;2023-04-21T03:37:48;101229.25;;;9.25;100.00
60307;BME280;46155;52.364;6.580;2023-04-21T03:40:14;101233.22;;;9.32;100.00
60307;BME280;46155;52.364;6.580;2023-04-21T03:42:39;101237.78;;;9.35;100.00
60307;BME280;46155;52.364;6.580;2023-04-21T03:45:07;101239.00;;;9.40;100.00
60307;BME280;46155;52.364;6.580;2023-04-21T03:47:32;101238.78;;;9.37;100.00
60307;BME280;46155;52.364;6.580;2023-04-21T03:49:58;101228.44;;;9.26;100.00
60307;BME280;46155;52.364;6.580;2023-04-21T03:52:23;101232.91;;;9.27;100.00
60307;BME280;46155;52.364;6.580;2023-04-21T03:54:49;101218.31;;;9.19;100.00
60307;BME280;46155;52.364;6.580;2023-04-21T03:57:14;101227.88;;;9.30;100.00
60307;BME280;46155;52.364;6.580;2023-04-21T03:59:40;101222.41;;;9.27;100.00
60307;BME280;46155;52.364;6.580;2023-04-21T04:02:05;101221.47;;;9.27;100.00
60307;BME280;46155;52.364;6.580;2023-04-21T04:04:31;101223.09;;;9.25;100.00
60307;BME280;46155;52.364;6.580;2023-04-21T04:06:56;101216.97;;;9.24;100.00
60307;BME280;46155;52.364;6.580;2023-04-21T04:09:22;101221.94;;;9.21;100.00
60307;BME280;46155;52.364;6.580;2023-04-21T04:11:47;101217.75;;;9.23;100.00
60307;BME280;46155;52.364;6.580;2023-04-21T04:14:13;101228.81;;;9.19;100.00
60307;BME280;46155;52.364;6.580;2023-04-21T04:16:38;101221.50;;;9.15;100.00
60307;BME280;46155;52.364;6.580;2023-04-21T04:19:03;101218.47;;;9.09;100.00
60307;BME280;46155;52.364;6.580;2023-04-21T04:21:29;101218.69;;;9.12;100.00
60307;BME280;46155;52.364;6.580;2023-04-21T04:23:55;101212.19;;;9.07;100.00
60307;BME280;46155;52.364;6.580;2023-04-21T04:26:20;101214.00;;;9.08;100.00
60307;BME280;46155;52.364;6.580;2023-04-21T04:28:50;101217.63;;;9.10;100.00
60307;BME280;46155;52.364;6.580;2023-04-21T04:31:15;101211.16;;;9.05;100.00
60307;BME280;46155;52.364;6.580;2023-04-21T04:33:41;101214.22;;;9.11;100.00
60307;BME280;46155;52.364;6.580;2023-04-21T04:36:07;101206.47;;;9.12;100.00
60307;BME280;46155;52.364;6.580;2023-04-21T04:38:32;101216.97;;;9.01;100.00
60307;BME280;46155;52.364;6.580;2023-04-21T04:40:59;101215.63;;;9.06;100.00
60307;BME280;46155;52.364;6.580;2023-04-21T04:43:26;101213.78;;;9.05;100.00
60307;BME280;46155;52.364;6.580;2023-04-21T04:45:51;101215.63;;;9.06;100.00
60307;BME280;46155;52.364;6.580;2023-04-21T04:48:17;101217.53;;;8.96;100.00
60307;BME280;46155;52.364;6.580;2023-04-21T04:50:42;101225.72;;;9.01;100.00
60307;BME280;46155;52.364;6.580;2023-04-21T04:53:08;101224.69;;;9.11;100.00
60307;BME280;46155;52.364;6.580;2023-04-21T04:55:33;101223.13;;;9.13;100.00
60307;BME280;46155;52.364;6.580;2023-04-21T04:57:59;101226.75;;;9.15;100.00
60307;BME280;46155;52.364;6.580;2023-04-21T05:00:26;101216.38;;;9.17;100.00
60307;BME280;46155;52.364;6.580;2023-04-21T05:02:53;101232.44;;;9.21;100.00
60307;BME280;46155;52.364;6.580;2023-04-21T05:05:18;101239.03;;;9.28;100.00
60307;BME280;46155;52.364;6.580;2023-04-21T05:07:44;101233.38;;;9.22;100.00
60307;BME280;46155;52.364;6.580;2023-04-21T05:10:09;101223.22;;;9.26;100.00
60307;BME280;46155;52.364;6.580;2023-04-21T05:12:35;101234.69;;;9.28;100.00
60307;BME280;46155;52.364;6.580;2023-04-21T05:15:00;101223.09;;;9.25;100.00
60307;BME280;46155;52.364;6.580;2023-04-21T05:17:26;101233.13;;;9.30;100.00
60307;BME280;46155;52.364;6.580;2023-04-21T05:19:52;101228.00;;;9.20;100.00
60307;BME280;46155;52.364;6.580;2023-04-21T05:22:18;101241.53;;;9.26;100.00
60307;BME280;46155;52.364;6.580;2023-04-21T05:24:43;101230.38;;;9.29;100.00
60307;BME280;46155;52.364;6.580;2023-04-21T05:27:08;101235.97;;;9.22;100.00
60307;BME280;46155;52.364;6.580;2023-04-21T05:29:34;101237.91;;;9.24;100.00
60307;BME280;46155;52.364;6.580;2023-04-21T05:31:59;101241.75;;;9.29;100.00
60307;BME280;46155;52.364;6.580;2023-04-21T05:34:25;101241.75;;;9.29;100.00
60307;BME280;46155;52.364;6.580;2023-04-21T05:36:50;101237.19;;;9.27;100.00
60307;BME280;46155;52.364;6.580;2023-04-21T05:39:16;101236.09;;;9.23;100.00
60307;BME280;46155;52.364;6.580;2023-04-21T05:41:42;101236.09;;;9.23;100.00
60307;BME280;46155;52.364;6.580;2023-04-21T05:44:07;101243.38;;;9.27;100.00
60307;BME280;46155;52.364;6.580;2023-04-21T05:46:33;101247.47;;;9.24;100.00
60307;BME280;46155;52.364;6.580;2023-04-21T05:48:59;101244.84;;;9.24;100.00
60307;BME280;46155;52.364;6.580;2023-04-21T05:51:26;101241.53;;;9.26;100.00
60307;BME280;46155;52.364;6.580;2023-04-21T05:53:52;101248.84;;;9.30;100.00
60307;BME280;46155;52.364;6.580;2023-04-21T05:56:17;101241.19;;;9.34;100.00
60307;BME280;46155;52.364;6.580;2023-04-21T05:58:43;101243.81;;;9.34;100.00
60307;BME280;46155;52.364;6.580;2023-04-21T06:01:08;101263.84;;;9.45;100.00
60307;BME280;46155;52.364;6.580;2023-04-21T06:03:33;101253.81;;;9.39;100.00
60307;BME280;46155;52.364;6.580;2023-04-21T06:06:00;101251.53;;;9.44;100.00
60307;BME280;46155;52.364;6.580;2023-04-21T06:08:26;101252.00;;;9.50;100.00
60307;BME280;46155;52.364;6.580;2023-04-21T06:10:51;101240.59;;;9.50;100.00
60307;BME280;46155;52.364;6.580;2023-04-21T06:13:16;101247.19;;;9.56;100.00
60307;BME280;46155;52.364;6.580;2023-04-21T06:15:42;101253.78;;;9.63;100.00
60307;BME280;46155;52.364;6.580;2023-04-21T06:18:07;101254.00;;;9.66;100.00
60307;BME280;46155;52.364;6.580;2023-04-21T06:20:32;101255.72;;;9.65;100.00
60307;BME280;46155;52.364;6.580;2023-04-21T06:22:58;101234.88;;;9.55;100.00
60307;BME280;46155;52.364;6.580;2023-04-21T06:25:23;101235.53;;;9.64;100.00
60307;BME280;46155;52.364;6.580;2023-04-21T06:27:48;101240.78;;;9.64;100.00
60307;BME280;46155;52.364;6.580;2023-04-21T06:30:14;101223.38;;;9.53;100.00
60307;BME280;46155;52.364;6.580;2023-04-21T06:32:39;101240.56;;;9.61;100.00
60307;BME280;46155;52.364;6.580;2023-04-21T06:35:05;101220.53;;;9.50;100.00
60307;BME280;46155;52.364;6.580;2023-04-21T06:37:30;101237.38;;;9.65;100.00
60307;BME280;46155;52.364;6.580;2023-04-21T06:39:55;101233.69;;;9.75;100.00
60307;BME280;46155;52.364;6.580;2023-04-21T06:42:21;101243.94;;;9.72;100.00
60307;BME280;46155;52.364;6.580;2023-04-21T06:44:46;101226.63;;;9.74;100.00
60307;BME280;46155;52.364;6.580;2023-04-21T06:47:12;101222.84;;;9.71;100.00
60307;BME280;46155;52.364;6.580;2023-04-21T06:49:37;101227.97;;;9.81;100.00
60307;BME280;46155;52.364;6.580;2023-04-21T06:52:03;101215.94;;;9.71;100.00
60307;BME280;46155;52.364;6.580;2023-04-21T06:54:29;101228.28;;;9.86;100.00
60307;BME280;46155;52.364;6.580;2023-04-21T06:56:54;101225.97;;;9.90;100.00
60307;BME280;46155;52.364;6.580;2023-04-21T06:59:21;101223.66;;;9.95;100.00
60307;BME280;46155;52.364;6.580;2023-04-21T07:01:46;101221.41;;;9.99;100.00
60307;BME280;46155;52.364;6.580;2023-04-21T07:04:16;101234.25;;;10.08;100.00
60307;BME280;46155;52.364;6.580;2023-04-21T07:06:41;101233.00;;;10.03;100.00
60307;BME280;46155;52.364;6.580;2023-04-21T07:09:07;101227.75;;;10.03;100.00
60307;BME280;46155;52.364;6.580;2023-04-21T07:11:32;101230.38;;;10.03;100.00
60307;BME280;46155;52.364;6.580;2023-04-21T07:13:58;101227.47;;;10.12;100.00
60307;BME280;46155;52.364;6.580;2023-04-21T07:16:26;101230.69;;;10.08;100.00
60307;BME280;46155;52.364;6.580;2023-04-21T07:18:51;101208.28;;;9.99;100.00
60307;BME280;46155;52.364;6.580;2023-04-21T07:21:16;101224.34;;;10.17;100.00
60307;BME280;46155;52.364;6.580;2023-04-21T07:23:42;101223.47;;;10.17;100.00
60307;BME280;46155;52.364;6.580;2023-04-21T07:26:07;101231.16;;;10.27;100.00
60307;BME280;46155;52.364;6.580;2023-04-21T07:28:32;101218.72;;;10.37;100.00
60307;BME280;46155;52.364;6.580;2023-04-21T07:30:57;101217.03;;;10.50;100.00
60307;BME280;46155;52.364;6.580;2023-04-21T07:33:23;101217.44;;;10.57;100.00
60307;BME280;46155;52.364;6.580;2023-04-21T07:35:48;101218.38;;;10.71;100.00
60307;BME280;46155;52.364;6.580;2023-04-21T07:38:13;101217.94;;;10.64;100.00
60307;BME280;46155;52.364;6.580;2023-04-21T07:40:39;101201.56;;;10.68;100.00
60307;BME280;46155;52.364;6.580;2023-04-21T07:43:04;101212.72;;;10.78;100.00
60307;BME280;46155;52.364;6.580;2023-04-21T07:45:29;101209.06;;;10.89;100.00
60307;BME280;46155;52.364;6.580;2023-04-21T07:47:55;101211.69;;;11.02;100.00
60307;BME280;46155;52.364;6.580;2023-04-21T07:50:20;101217.56;;;11.12;100.00
60307;BME280;46155;52.364;6.580;2023-04-21T07:52:45;101217.34;;;11.22;100.00
60307;BME280;46155;52.364;6.580;2023-04-21T07:55:12;101211.09;;;11.20;100.00
60307;BME280;46155;52.364;6.580;2023-04-21T07:57:37;101221.09;;;11.26;100.00
60307;BME280;46155;52.364;6.580;2023-04-21T08:00:04;101213.09;;;11.24;100.00
60307;BME280;46155;52.364;6.580;2023-04-21T08:02:30;101209.16;;;11.17;100.00
60307;BME280;46155;52.364;6.580;2023-04-21T08:04:55;101209.06;;;11.16;100.00
60307;BME280;46155;52.364;6.580;2023-04-21T08:07:20;101205.63;;;11.03;100.00
60307;BME280;46155;52.364;6.580;2023-04-21T08:09:46;101206.84;;;11.09;100.00
60307;BME280;46155;52.364;6.580;2023-04-21T08:12:11;101217.94;;;11.18;100.00
60307;BME280;46155;52.364;6.580;2023-04-21T08:14:36;101226.53;;;11.29;100.00
60307;BME280;46155;52.364;6.580;2023-04-21T08:17:02;101223.28;;;11.19;100.00
60307;BME280;46155;52.364;6.580;2023-04-21T08:19:27;101215.50;;;11.21;100.00
60307;BME280;46155;52.364;6.580;2023-04-21T08:21:53;101215.50;;;11.21;100.00
60307;BME280;46155;52.364;6.580;2023-04-21T08:24:19;101208.75;;;11.25;100.00
60307;BME280;46155;52.364;6.580;2023-04-21T08:26:44;101210.06;;;11.31;100.00
60307;BME280;46155;52.364;6.580;2023-04-21T08:29:09;101202.75;;;11.41;100.00
60307;BME280;46155;52.364;6.580;2023-04-21T08:31:37;101208.28;;;11.45;100.00
60307;BME280;46155;52.364;6.580;2023-04-21T08:34:02;101206.16;;;11.53;100.00
60307;BME280;46155;52.364;6.580;2023-04-21T08:36:28;101216.34;;;11.62;100.00
60307;BME280;46155;52.364;6.580;2023-04-21T08:38:53;101204.09;;;11.62;100.00
60307;BME280;46155;52.364;6.580;2023-04-21T08:41:19;101214.59;;;11.76;100.00
60307;BME280;46155;52.364;6.580;2023-04-21T08:43:44;101214.41;;;11.73;100.00
60307;BME280;46155;52.364;6.580;2023-04-21T08:46:11;101217.25;;;11.62;100.00
60307;BME280;46155;52.364;6.580;2023-04-21T08:48:37;101220.47;;;11.71;100.00
60307;BME280;46155;52.364;6.580;2023-04-21T08:51:07;101221.00;;;11.66;100.00
60307;BME280;46155;52.364;6.580;2023-04-21T08:53:34;101207.25;;;11.57;100.00
60307;BME280;46155;52.364;6.580;2023-04-21T08:56:01;101208.75;;;11.66;100.00
60307;BME280;46155;52.364;6.580;2023-04-21T08:58:26;101216.69;;;11.81;100.00
60307;BME280;46155;52.364;6.580;2023-04-21T09:00:51;101214.34;;;11.86;100.00
60307;BME280;46155;52.364;6.580;2023-04-21T09:03:21;101210.72;;;11.84;100.00
60307;BME280;46155;52.364;6.580;2023-04-21T09:06:08;101210.09;;;11.88;100.00
60307;BME280;46155;52.364;6.580;2023-04-21T09:08:36;101216.53;;;11.93;99.73
60307;BME280;46155;52.364;6.580;2023-04-21T09:11:03;101203.00;;;11.87;99.24
60307;BME280;46155;52.364;6.580;2023-04-21T09:13:35;101203.38;;;11.93;100.00
60307;BME280;46155;52.364;6.580;2023-04-21T09:16:02;101198.75;;;11.89;99.12
60307;BME280;46155;52.364;6.580;2023-04-21T09:18:29;101209.06;;;11.99;99.98
60307;BME280;46155;52.364;6.580;2023-04-21T09:21:06;101211.25;;;12.07;99.50
60307;BME280;46155;52.364;6.580;2023-04-21T09:23:40;101211.44;;;12.10;98.82
60307;BME280;46155;52.364;6.580;2023-04-21T09:26:06;101206.53;;;12.16;99.12
60307;BME280;46155;52.364;6.580;2023-04-21T09:28:31;101209.00;;;12.13;98.52
60307;BME280;46155;52.364;6.580;2023-04-21T09:30:57;101199.28;;;12.12;98.99
60307;BME280;46155;52.364;6.580;2023-04-21T09:33:22;101207.06;;;12.10;98.83
60307;BME280;46155;52.364;6.580;2023-04-21T09:35:47;101208.09;;;12.12;98.65
60307;BME280;46155;52.364;6.580;2023-04-21T09:38:13;101201.63;;;12.07;98.39
60307;BME280;46155;52.364;6.580;2023-04-21T09:40:38;101213.06;;;12.08;99.06
60307;BME280;46155;52.364;6.580;2023-04-21T09:43:05;101209.72;;;12.10;99.52
60307;BME280;46155;52.364;6.580;2023-04-21T09:45:31;101202.38;;;12.19;98.78
60307;BME280;46155;52.364;6.580;2023-04-21T09:47:58;101203.28;;;12.20;99.30
60307;BME280;46155;52.364;6.580;2023-04-21T09:50:27;101204.47;;;12.25;99.23
60307;BME280;46155;52.364;6.580;2023-04-21T09:52:55;101192.56;;;12.32;99.35
60307;BME280;46155;52.364;6.580;2023-04-21T09:55:29;101187.69;;;12.38;99.56
60307;BME280;46155;52.364;6.580;2023-04-21T09:57:58;101201.31;;;12.46;98.65
60307;BME280;46155;52.364;6.580;2023-04-21T10:00:26;101191.88;;;12.49;97.74
60307;BME280;46155;52.364;6.580;2023-04-21T10:02:56;101190.53;;;12.56;97.51
60307;BME280;46155;52.364;6.580;2023-04-21T10:05:22;101187.34;;;12.62;97.35
60307;BME280;46155;52.364;6.580;2023-04-21T10:07:48;101193.31;;;12.59;97.08
60307;BME280;46155;52.364;6.580;2023-04-21T10:10:27;101199.31;;;12.56;97.19
60307;BME280;46155;52.364;6.580;2023-04-21T10:12:53;101197.88;;;12.62;96.74
60307;BME280;46155;52.364;6.580;2023-04-21T10:18:17;101185.56;;;12.77;97.74
60307;BME280;46155;52.364;6.580;2023-04-21T10:20:50;101186.75;;;12.82;97.56
60307;BME280;46155;52.364;6.580;2023-04-21T10:23:30;101188.91;;;12.89;97.17
60307;BME280;46155;52.364;6.580;2023-04-21T10:31:27;101187.56;;;12.96;95.97
60307;BME280;46155;52.364;6.580;2023-04-21T10:34:14;101179.38;;;12.91;96.37
60307;BME280;46155;52.364;6.580;2023-04-21T10:39:30;101175.34;;;12.98;96.19
60307;BME280;46155;52.364;6.580;2023-04-21T10:42:21;101171.25;;;13.03;96.81
60307;BME280;46155;52.364;6.580;2023-04-21T10:47:28;101161.41;;;13.16;99.76
60307;BME280;46155;52.364;6.580;2023-04-21T10:49:57;101161.97;;;13.10;98.04
60307;BME280;46155;52.364;6.580;2023-04-21T10:52:32;101160.88;;;13.06;98.52
60307;BME280;46155;52.364;6.580;2023-04-21T10:57:23;101144.91;;;13.03;100.00
60307;BME280;46155;52.364;6.580;2023-04-21T10:59:48;101152.16;;;13.07;100.00
60307;BME280;46155;52.364;6.580;2023-04-21T11:02:15;101155.63;;;13.06;99.09
60307;BME280;46155;52.364;6.580;2023-04-21T11:04:41;101154.31;;;13.15;99.42
60307;BME280;46155;52.364;6.580;2023-04-21T11:07:15;101153.94;;;13.23;99.89
60307;BME280;46155;52.364;6.580;2023-04-21T11:09:42;101154.72;;;13.22;97.67
60307;BME280;46155;52.364;6.580;2023-04-21T11:12:12;101149.38;;;13.21;97.70
60307;BME280;46155;52.364;6.580;2023-04-21T11:14:42;101148.91;;;13.28;96.96
60307;BME280;46155;52.364;6.580;2023-04-21T11:17:15;101145.53;;;13.31;96.24
60307;BME280;46155;52.364;6.580;2023-04-21T11:19:44;101148.72;;;13.40;96.79
60307;BME280;46155;52.364;6.580;2023-04-21T11:22:10;101148.16;;;13.46;96.20
60307;BME280;46155;52.364;6.580;2023-04-21T11:24:36;101140.25;;;13.46;96.23
60307;BME280;46155;52.364;6.580;2023-04-21T11:27:01;101135.13;;;13.49;97.11
60307;BME280;46155;52.364;6.580;2023-04-21T11:29:27;101135.28;;;13.52;97.04
60307;BME280;46155;52.364;6.580;2023-04-21T11:31:55;101123.09;;;13.54;97.86
60307;BME280;46155;52.364;6.580;2023-04-21T11:34:25;101131.34;;;13.60;97.46
60307;BME280;46155;52.364;6.580;2023-04-21T11:36:51;101123.41;;;13.60;98.03
60307;BME280;46155;52.364;6.580;2023-04-21T11:39:17;101116.66;;;13.49;97.65
60307;BME280;46155;52.364;6.580;2023-04-21T11:41:46;101110.22;;;13.43;96.36
60307;BME280;46155;52.364;6.580;2023-04-21T11:44:13;101121.28;;;13.53;96.30
60307;BME280;46155;52.364;6.580;2023-04-21T11:46:45;101116.75;;;13.50;95.65
60307;BME280;46155;52.364;6.580;2023-04-21T11:49:13;101116.16;;;13.56;95.73
60307;BME280;46155;52.364;6.580;2023-04-21T11:51:41;101110.81;;;13.54;94.18
60307;BME280;46155;52.364;6.580;2023-04-21T11:54:11;101099.59;;;13.58;94.19
60307;BME280;46155;52.364;6.580;2023-04-21T11:56:39;101099.00;;;13.64;94.91
60307;BME280;46155;52.364;6.580;2023-04-21T11:59:16;101112.22;;;13.64;93.90
60307;BME280;46155;52.364;6.580;2023-04-21T12:01:51;101090.59;;;13.71;93.58
60307;BME280;46155;52.364;6.580;2023-04-21T12:04:25;101081.19;;;13.76;93.50
60307;BME280;46155;52.364;6.580;2023-04-21T12:06:59;101095.94;;;13.89;97.24
60307;BME280;46155;52.364;6.580;2023-04-21T12:09:25;101072.25;;;13.91;95.36
60307;BME280;46155;52.364;6.580;2023-04-21T12:11:55;101079.34;;;13.92;94.15
60307;BME280;46155;52.364;6.580;2023-04-21T12:14:24;101071.75;;;13.98;96.19
60307;BME280;46155;52.364;6.580;2023-04-21T12:16:55;101063.91;;;14.00;93.89
60307;BME280;46155;52.364;6.580;2023-04-21T12:19:41;101065.66;;;13.99;91.21
60307;BME280;46155;52.364;6.580;2023-04-21T12:22:17;101054.78;;;14.11;92.26
60307;BME280;46155;52.364;6.580;2023-04-21T12:24:43;101054.75;;;14.27;90.75
60307;BME280;46155;52.364;6.580;2023-04-21T12:27:09;101043.06;;;14.40;91.56
60307;BME280;46155;52.364;6.580;2023-04-21T12:29:34;101041.31;;;14.59;91.39
60307;BME280;46155;52.364;6.580;2023-04-21T12:32:01;101031.19;;;14.68;89.24
60307;BME280;46155;52.364;6.580;2023-04-21T12:34:27;101029.22;;;14.82;89.44
60307;BME280;46155;52.364;6.580;2023-04-21T12:36:52;101020.03;;;14.93;89.19
60307;BME280;46155;52.364;6.580;2023-04-21T12:39:17;101025.66;;;15.01;88.51
60307;BME280;46155;52.364;6.580;2023-04-21T12:41:44;101014.53;;;14.89;83.42
60307;BME280;46155;52.364;6.580;2023-04-21T12:44:11;101007.66;;;14.92;85.42
60307;BME280;46155;52.364;6.580;2023-04-21T12:46:36;101010.66;;;15.00;83.36
60307;BME280;46155;52.364;6.580;2023-04-21T12:49:02;101015.72;;;15.15;82.83
60307;BME280;46155;52.364;6.580;2023-04-21T12:51:27;101012.53;;;15.22;81.20
60307;BME280;46155;52.364;6.580;2023-04-21T12:53:53;101004.88;;;15.28;80.88
60307;BME280;46155;52.364;6.580;2023-04-21T12:56:18;101006.16;;;15.37;81.26
60307;BME280;46155;52.364;6.580;2023-04-21T12:58:43;100989.91;;;15.48;81.60
60307;BME280;46155;52.364;6.580;2023-04-21T13:01:09;100999.59;;;15.69;79.52
60307;BME280;46155;52.364;6.580;2023-04-21T13:03:36;100992.69;;;15.73;77.11
60307;BME280;46155;52.364;6.580;2023-04-21T13:06:01;100981.28;;;15.74;77.59
60307;BME280;46155;52.364;6.580;2023-04-21T13:08:26;100986.56;;;15.74;77.94
60307;BME280;46155;52.364;6.580;2023-04-21T13:10:52;100977.16;;;15.80;77.89
60307;BME280;46155;52.364;6.580;2023-04-21T13:13:17;100975.75;;;15.89;76.95
60307;BME280;46155;52.364;6.580;2023-04-21T13:15:42;100955.97;;;15.80;77.60
60307;BME280;46155;52.364;6.580;2023-04-21T13:18:07;100969.69;;;15.91;76.33
60307;BME280;46155;52.364;6.580;2023-04-21T13:20:33;100965.50;;;15.96;77.17
60307;BME280;46155;52.364;6.580;2023-04-21T13:22:58;100963.31;;;16.09;77.62
60307;BME280;46155;52.364;6.580;2023-04-21T13:25:23;100947.03;;;15.98;76.38
60307;BME280;46155;52.364;6.580;2023-04-21T13:27:49;100954.25;;;16.02;75.85
60307;BME280;46155;52.364;6.580;2023-04-21T13:30:14;100945.44;;;16.03;75.61
60307;BME280;46155;52.364;6.580;2023-04-21T13:32:40;100940.03;;;16.00;76.02
60307;BME280;46155;52.364;6.580;2023-04-21T13:35:06;100926.78;;;16.00;75.21
60307;BME280;46155;52.364;6.580;2023-04-21T13:37:38;100926.41;;;16.12;75.59
60307;BME280;46155;52.364;6.580;2023-04-21T13:40:06;100936.34;;;16.17;74.51
60307;BME280;46155;52.364;6.580;2023-04-21T13:42:36;100917.13;;;16.00;73.89
60307;BME280;46155;52.364;6.580;2023-04-21T13:45:02;100919.81;;;16.02;73.62
60307;BME280;46155;52.364;6.580;2023-04-21T13:47:31;100903.88;;;16.00;74.10
60307;BME280;46155;52.364;6.580;2023-04-21T13:49:57;100893.13;;;15.97;74.65
60307;BME280;46155;52.364;6.580;2023-04-21T13:52:23;100899.75;;;16.09;74.98
60307;BME280;46155;52.364;6.580;2023-04-21T13:54:50;100893.09;;;16.18;74.45
60307;BME280;46155;52.364;6.580;2023-04-21T13:57:16;100873.53;;;16.15;74.14
60307;BME280;46155;52.364;6.580;2023-04-21T13:59:41;100878.06;;;16.17;73.80
60307;BME280;46155;52.364;6.580;2023-04-21T14:02:06;100869.25;;;16.18;74.38
60307;BME280;46155;52.364;6.580;2023-04-21T14:04:32;100876.41;;;16.21;75.64
60307;BME280;46155;52.364;6.580;2023-04-21T14:06:58;100875.66;;;16.24;73.60
60307;BME280;46155;52.364;6.580;2023-04-21T14:09:24;100856.94;;;16.19;74.14
60307;BME280;46155;52.364;6.580;2023-04-21T14:11:49;100873.50;;;16.13;72.58
60307;BME280;46155;52.364;6.580;2023-04-21T14:14:15;100853.13;;;16.12;71.62
60307;BME280;46155;52.364;6.580;2023-04-21T14:16:40;100846.28;;;16.17;71.32
60307;BME280;46155;52.364;6.580;2023-04-21T14:19:06;100850.97;;;16.25;72.56
60307;BME280;46155;52.364;6.580;2023-04-21T14:21:31;100835.19;;;16.28;71.67
60307;BME280;46155;52.364;6.580;2023-04-21T14:23:56;100841.91;;;16.42;72.97
60307;BME280;46155;52.364;6.580;2023-04-21T14:26:22;100845.50;;;16.44;72.10
60307;BME280;46155;52.364;6.580;2023-04-21T14:28:48;100827.72;;;16.40;71.44
60307;BME280;46155;52.364;6.580;2023-04-21T14:31:13;100816.13;;;16.38;70.16
60307;BME280;46155;52.364;6.580;2023-04-21T14:33:38;100817.69;;;16.33;70.96
60307;BME280;46155;52.364;6.580;2023-04-21T14:36:05;100807.31;;;16.38;71.33
60307;BME280;46155;52.364;6.580;2023-04-21T14:38:32;100804.81;;;16.42;72.10
60307;BME280;46155;52.364;6.580;2023-04-21T14:40:58;100808.41;;;16.44;72.47
60307;BME280;46155;52.364;6.580;2023-04-21T14:43:23;100801.44;;;16.46;71.56
60307;BME280;46155;52.364;6.580;2023-04-21T14:45:49;100792.50;;;16.44;72.13
60307;BME280;46155;52.364;6.580;2023-04-21T14:48:14;100793.44;;;16.45;71.72
60307;BME280;46155;52.364;6.580;2023-04-21T14:50:40;100783.63;;;16.42;71.67
60307;BME280;46155;52.364;6.580;2023-04-21T14:53:05;100789.75;;;16.41;70.38
60307;BME280;46155;52.364;6.580;2023-04-21T14:55:31;100789.03;;;16.45;71.27
60307;BME280;46155;52.364;6.580;2023-04-21T14:57:56;100786.63;;;16.51;71.46
60307;BME280;46155;52.364;6.580;2023-04-21T15:00:21;100785.06;;;16.58;71.18
60307;BME280;46155;52.364;6.580;2023-04-21T15:02:47;100786.00;;;16.59;71.63
60307;BME280;46155;52.364;6.580;2023-04-21T15:05:13;100789.69;;;16.64;71.89
60307;BME280;46155;52.364;6.580;2023-04-21T15:07:38;100772.16;;;16.67;72.04
60307;BME280;46155;52.364;6.580;2023-04-21T15:10:05;100761.59;;;16.69;71.12
60307;BME280;46155;52.364;6.580;2023-04-21T15:12:31;100756.09;;;16.63;70.50
60307;BME280;46155;52.364;6.580;2023-04-21T15:14:56;100757.09;;;16.66;71.13
60307;BME280;46155;52.364;6.580;2023-04-21T15:17:21;100758.91;;;16.67;72.39
60307;BME280;46155;52.364;6.580;2023-04-21T15:19:47;100754.50;;;16.68;71.94
60307;BME280;46155;52.364;6.580;2023-04-21T15:22:13;100746.44;;;16.65;72.68
60307;BME280;46155;52.364;6.580;2023-04-21T15:24:39;100746.19;;;16.57;70.42
60307;BME280;46155;52.364;6.580;2023-04-21T15:27:04;100743.59;;;16.59;71.58
60307;BME280;46155;52.364;6.580;2023-04-21T15:29:30;100733.88;;;16.59;73.89
60307;BME280;46155;52.364;6.580;2023-04-21T15:31:55;100738.22;;;16.57;73.60
60307;BME280;46155;52.364;6.580;2023-04-21T15:34:20;100744.28;;;16.53;76.61
60307;BME280;46155;52.364;6.580;2023-04-21T15:36:46;100740.53;;;16.48;76.07
60307;BME280;46155;52.364;6.580;2023-04-21T15:39:11;100727.25;;;16.46;76.76
60307;BME280;46155;52.364;6.580;2023-04-21T15:41:40;100728.91;;;16.44;77.93
60307;BME280;46155;52.364;6.580;2023-04-21T15:44:05;100733.28;;;16.42;78.63
60307;BME280;46155;52.364;6.580;2023-04-21T15:46:30;100731.31;;;16.37;78.91
60307;BME280;46155;52.364;6.580;2023-04-21T15:48:56;100732.19;;;16.37;80.86
60307;BME280;46155;52.364;6.580;2023-04-21T15:51:21;100728.59;;;16.35;82.79
60307;BME280;46155;52.364;6.580;2023-04-21T15:53:48;100728.72;;;16.38;83.48
60307;BME280;46155;52.364;6.580;2023-04-21T15:56:14;100724.38;;;16.40;85.29
60307;BME280;46155;52.364;6.580;2023-04-21T15:58:40;100726.13;;;16.40;88.28
60307;BME280;46155;52.364;6.580;2023-04-21T16:01:06;100721.53;;;16.35;90.33